Sussex, Wisconsin
Current Conditions -  °F | °C
As of 5:45 PM on Saturday 20 Dec 2014 (Local Time) from KUES Reporting Station
Overcast Overcast  
Wind Chill: 28°   Ceiling: 2800
Heat Index: 28°   Visibility: 7mi
Dew Point: 25°   Wind: 3mph
Humidity: 86%   Direction: 150°SSE
Pressure: 30.24"   Gusts: NA
Location:  43.13°N, 88.22°W
Report Text: KUES 202345Z 15003KT 7SM OVC028 M02/M04 A3024
Loading
Personal Weather Stations






























Interactive Weather Map New forecast layout! Learn more

10-Day Weather Forecast

Advertisements
Track Severe Weather on mobile